Mullinville, Kansas
Current Conditions -  °F | °C
As of 8:52 AM on Tuesday 21 Oct 2014 (Local Time) from KDDC Reporting Station
Moderate Fog Moderate Fog  
Wind Chill: 55°   Ceiling: 100
Heat Index: 55°   Visibility: 0mi
Dew Point: 54°   Wind: 8mph
Humidity: 96%   Direction: 150°SSE
Pressure: 30.09"   Gusts: NA
Location:  37.59°N, 99.48°W
Report Text: KDDC 211352Z AUTO 15007KT M1/4SM FG VV001 13/12 A3009 RMK AO2 SLP179 T01280122
Loading
Personal Weather Stations






























Interactive Weather Map
Tropical Storm Tracking
New forecast layout! Learn more

10-Day Weather Forecast

Advertisements
Track Severe Weather on mobile